createdAt,value
2023-02-08T00:00:00.571Z,0.0
2023-02-08T00:05:00.522Z,0.0
2023-02-08T00:10:00.585Z,0.0
2023-02-08T00:15:00.578Z,0.0
2023-02-08T00:20:00.608Z,0.0
2023-02-08T00:25:00.522Z,0.0
2023-02-08T00:30:00.608Z,0.0
2023-02-08T00:35:00.525Z,0.0
2023-02-08T00:40:00.557Z,0.0
2023-02-08T00:45:00.531Z,0.0
2023-02-08T00:50:03.188Z,0.0
2023-02-08T00:55:00.930Z,0.0
2023-02-08T01:00:00.639Z,0.0
2023-02-08T01:05:00.554Z,0.0
2023-02-08T01:10:00.620Z,0.0
2023-02-08T01:15:00.569Z,0.0
2023-02-08T01:20:00.586Z,0.0
2023-02-08T01:25:00.575Z,0.0
2023-02-08T01:30:00.640Z,0.0
2023-02-08T01:35:00.607Z,0.0
2023-02-08T01:40:00.586Z,0.0
2023-02-08T01:45:00.543Z,0.0
2023-02-08T01:50:00.573Z,0.0
2023-02-08T01:55:00.533Z,0.0
2023-02-08T02:00:00.576Z,0.0
2023-02-08T02:05:00.662Z,0.0
2023-02-08T02:10:00.553Z,0.0
2023-02-08T02:15:00.580Z,0.0
2023-02-08T02:20:00.590Z,0.0
2023-02-08T02:25:00.576Z,0.0
2023-02-08T02:30:00.599Z,0.0
2023-02-08T02:35:00.549Z,0.0
2023-02-08T02:40:00.589Z,0.0
2023-02-08T02:45:00.575Z,0.0
2023-02-08T02:50:00.583Z,0.0
2023-02-08T02:55:00.597Z,0.0
2023-02-08T03:00:00.619Z,0.0
2023-02-08T03:05:00.559Z,0.0
2023-02-08T03:10:00.649Z,0.0
2023-02-08T03:15:00.546Z,0.0
2023-02-08T03:20:00.623Z,0.0
2023-02-08T03:25:00.565Z,0.0
2023-02-08T03:30:00.618Z,0.0
2023-02-08T03:35:00.582Z,0.0
2023-02-08T03:40:00.568Z,0.0
2023-02-08T03:45:00.581Z,0.0
2023-02-08T03:50:00.618Z,0.0
2023-02-08T03:55:00.544Z,0.0
2023-02-08T04:00:00.588Z,0.0
2023-02-08T04:05:00.568Z,0.0
2023-02-08T04:10:00.580Z,0.0
2023-02-08T04:15:00.580Z,0.0
2023-02-08T04:20:00.597Z,0.0
2023-02-08T04:25:00.525Z,0.0
2023-02-08T04:30:00.594Z,0.0
2023-02-08T04:35:00.639Z,0.0
2023-02-08T04:40:00.600Z,0.0
2023-02-08T04:45:00.528Z,0.0
2023-02-08T04:50:00.632Z,0.0
2023-02-08T04:55:00.624Z,0.0
2023-02-08T05:00:00.817Z,0.0
2023-02-08T05:05:00.827Z,0.0
2023-02-08T05:10:00.582Z,0.0
2023-02-08T05:15:00.600Z,0.0
2023-02-08T05:20:00.631Z,0.0
2023-02-08T05:25:00.678Z,0.0
2023-02-08T05:30:00.631Z,0.0
2023-02-08T05:35:00.590Z,0.0
2023-02-08T05:40:00.606Z,0.0
2023-02-08T05:45:00.581Z,0.0
2023-02-08T05:50:00.587Z,0.0
2023-02-08T05:55:00.550Z,0.0
2023-02-08T06:00:00.603Z,0.0
2023-02-08T06:05:00.612Z,0.0
2023-02-08T06:10:00.595Z,0.0
2023-02-08T06:15:00.567Z,0.0
2023-02-08T06:20:00.582Z,0.0
2023-02-08T06:25:00.593Z,0.0
2023-02-08T06:30:00.630Z,0.0
2023-02-08T06:35:00.573Z,0.0
2023-02-08T06:40:00.629Z,0.0
2023-02-08T06:45:00.590Z,0.0
2023-02-08T06:50:00.624Z,0.0
2023-02-08T06:55:00.572Z,0.0
2023-02-08T07:00:00.595Z,0.0
2023-02-08T07:05:00.602Z,0.0
2023-02-08T07:10:00.588Z,0.0
2023-02-08T07:15:00.553Z,0.0
2023-02-08T07:20:00.583Z,0.0
2023-02-08T07:25:00.518Z,0.0
2023-02-08T07:30:00.618Z,0.0
2023-02-08T07:35:00.560Z,0.0
2023-02-08T07:40:00.628Z,0.0
2023-02-08T07:45:00.717Z,0.3
2023-02-08T07:50:00.570Z,0.6
2023-02-08T07:55:00.610Z,1.0
2023-02-08T08:00:00.593Z,0.4
2023-02-08T08:05:00.558Z,0.6
2023-02-08T08:10:00.587Z,0.2
2023-02-08T08:15:00.582Z,0.0
2023-02-08T08:20:00.611Z,0.1
2023-02-08T08:25:00.674Z,0.3
2023-02-08T08:30:00.599Z,1.1
2023-02-08T08:35:00.579Z,3.4
2023-02-08T08:40:00.593Z,3.1
2023-02-08T08:45:00.613Z,0.6
2023-02-08T08:50:00.661Z,1.1
2023-02-08T08:55:00.553Z,4.7
2023-02-08T09:00:00.565Z,2.7
2023-02-08T09:05:00.678Z,4.5
2023-02-08T09:10:00.639Z,7.4
2023-02-08T09:15:00.628Z,6.0
2023-02-08T09:20:00.595Z,3.4
2023-02-08T09:25:00.535Z,6.1
2023-02-08T09:30:00.593Z,8.1
2023-02-08T09:35:00.537Z,5.9
2023-02-08T09:40:00.616Z,7.1
2023-02-08T09:45:00.592Z,6.5
2023-02-08T09:50:00.586Z,6.8
2023-02-08T09:55:00.523Z,4.9
2023-02-08T10:00:00.620Z,6.1
2023-02-08T10:05:00.645Z,1.0
2023-02-08T10:10:00.557Z,3.9
2023-02-08T10:15:00.618Z,6.2
2023-02-08T10:20:00.624Z,5.7
2023-02-08T10:25:00.610Z,5.0
2023-02-08T10:30:00.624Z,5.6
2023-02-08T10:35:00.607Z,6.8
2023-02-08T10:40:00.628Z,7.4
2023-02-08T10:45:00.604Z,3.1
2023-02-08T10:50:00.682Z,7.6
2023-02-08T10:55:00.640Z,4.9
2023-02-08T11:00:00.608Z,7.0
2023-02-08T11:05:00.553Z,5.4
2023-02-08T11:10:00.680Z,7.8
2023-02-08T11:15:00.563Z,5.3
2023-02-08T11:20:00.618Z,7.3
2023-02-08T11:25:00.667Z,3.7
2023-02-08T11:30:00.784Z,8.4
2023-02-08T11:35:00.568Z,6.9
2023-02-08T11:40:00.697Z,6.7
2023-02-08T11:45:00.674Z,4.6
2023-02-08T11:50:00.600Z,4.4
2023-02-08T11:55:00.564Z,5.2
2023-02-08T12:00:00.574Z,4.6
2023-02-08T12:05:00.564Z,1.4
2023-02-08T12:10:00.597Z,2.9
2023-02-08T12:15:00.623Z,3.9
2023-02-08T12:20:00.618Z,4.4
2023-02-08T12:25:00.557Z,4.8
2023-02-08T12:30:00.661Z,4.9
2023-02-08T12:35:00.619Z,6.5
2023-02-08T12:40:00.579Z,4.0
2023-02-08T12:45:00.557Z,1.4
2023-02-08T12:50:00.646Z,5.3
2023-02-08T12:55:00.589Z,7.9
2023-02-08T13:00:00.583Z,0.7
2023-02-08T13:05:00.615Z,5.4
2023-02-08T13:10:00.586Z,3.3
2023-02-08T13:15:03.238Z,5.5
2023-02-08T13:20:01.231Z,1.4
2023-02-08T13:25:08.637Z,6.3
2023-02-08T13:30:00.578Z,3.5
2023-02-08T13:35:00.541Z,5.1
2023-02-08T13:40:00.633Z,1.0
2023-02-08T13:45:00.606Z,2.0
2023-02-08T13:50:00.632Z,3.8
2023-02-08T13:55:00.694Z,1.7
2023-02-08T14:00:00.588Z,4.4
2023-02-08T14:05:00.600Z,3.9
2023-02-08T14:10:00.571Z,1.6
2023-02-08T14:15:00.598Z,2.9
2023-02-08T14:20:00.606Z,2.0
2023-02-08T14:25:00.684Z,1.0
2023-02-08T14:30:00.572Z,2.7
2023-02-08T14:35:00.611Z,4.5
2023-02-08T14:40:00.549Z,3.6
2023-02-08T14:45:00.578Z,3.8
2023-02-08T14:50:00.713Z,6.0
2023-02-08T14:55:00.583Z,2.4
2023-02-08T15:00:00.667Z,3.7
2023-02-08T15:05:00.692Z,1.0
2023-02-08T15:10:00.639Z,1.4
2023-02-08T15:15:00.626Z,4.2
2023-02-08T15:20:00.613Z,4.7
2023-02-08T15:25:00.586Z,4.4
2023-02-08T15:30:00.837Z,3.0
2023-02-08T15:35:00.570Z,0.6
2023-02-08T15:40:00.654Z,2.2
2023-02-08T15:45:00.691Z,2.2
2023-02-08T15:50:00.661Z,2.4
2023-02-08T15:55:00.648Z,1.2
2023-02-08T16:00:00.686Z,0.0
2023-02-08T16:05:00.584Z,1.5
2023-02-08T16:10:00.585Z,0.2
2023-02-08T16:15:00.626Z,0.3
2023-02-08T16:20:00.621Z,0.9
2023-02-08T16:25:00.649Z,0.5
2023-02-08T16:30:00.571Z,2.1
2023-02-08T16:35:00.563Z,0.8
2023-02-08T16:40:00.661Z,1.8
2023-02-08T16:45:00.575Z,1.6
2023-02-08T16:50:00.584Z,2.5
2023-02-08T16:55:00.583Z,0.8
2023-02-08T17:00:00.880Z,0.9
2023-02-08T17:05:00.555Z,1.4
2023-02-08T17:10:00.837Z,0.7
2023-02-08T17:15:00.563Z,0.7
2023-02-08T17:20:00.818Z,0.3
2023-02-08T17:25:00.570Z,2.4
2023-02-08T17:30:00.634Z,1.7
2023-02-08T17:35:00.625Z,1.6
2023-02-08T17:40:00.579Z,1.7
2023-02-08T17:45:00.613Z,1.5
2023-02-08T17:50:00.568Z,0.7
2023-02-08T17:55:00.558Z,1.4
2023-02-08T18:00:00.788Z,3.5
2023-02-08T18:05:00.615Z,3.4
2023-02-08T18:10:00.547Z,1.6
2023-02-08T18:15:00.616Z,3.2
2023-02-08T18:20:00.619Z,3.4
2023-02-08T18:25:00.539Z,2.5
2023-02-08T18:30:00.632Z,2.2
2023-02-08T18:35:04.404Z,2.8
2023-02-08T18:40:00.655Z,2.2
2023-02-08T18:45:00.573Z,1.9
2023-02-08T18:50:00.598Z,3.7
2023-02-08T18:55:00.717Z,1.7
2023-02-08T19:00:00.567Z,3.7
2023-02-08T19:05:00.545Z,4.4
2023-02-08T19:10:00.621Z,2.9
2023-02-08T19:15:00.589Z,1.1
2023-02-08T19:20:00.605Z,2.1
2023-02-08T19:25:00.562Z,3.0
2023-02-08T19:30:00.623Z,2.8
2023-02-08T19:35:00.643Z,4.2
2023-02-08T19:40:00.621Z,2.3
2023-02-08T19:45:00.545Z,3.2
2023-02-08T19:50:00.618Z,1.8
2023-02-08T19:55:00.623Z,4.3
2023-02-08T20:00:04.505Z,1.7
2023-02-08T20:05:00.547Z,2.5
2023-02-08T20:10:00.652Z,3.4
2023-02-08T20:20:00.739Z,3.3
2023-02-08T20:25:00.747Z,3.9
2023-02-08T20:30:00.687Z,5.0
2023-02-08T20:35:00.727Z,2.9
2023-02-08T20:40:00.703Z,3.8
2023-02-08T20:45:00.722Z,4.3
2023-02-08T20:50:13.449Z,4.5
2023-02-08T20:55:00.720Z,3.3
2023-02-08T21:00:00.746Z,5.2
2023-02-08T21:05:00.710Z,4.9
2023-02-08T21:10:00.717Z,4.8
2023-02-08T21:15:00.770Z,3.7
2023-02-08T21:20:00.692Z,5.3
2023-02-08T21:25:00.712Z,2.1
2023-02-08T21:30:00.692Z,3.4
2023-02-08T21:35:00.721Z,5.0
2023-02-08T21:40:00.705Z,6.6
2023-02-08T21:45:00.728Z,3.2
2023-02-08T21:50:00.831Z,4.2
2023-02-08T21:55:00.676Z,3.1
2023-02-08T22:00:00.708Z,3.9
2023-02-08T22:05:00.827Z,3.9
2023-02-08T22:10:00.674Z,2.8
2023-02-08T22:15:00.701Z,3.3
2023-02-08T22:20:00.723Z,3.1
2023-02-08T22:25:00.703Z,2.4
2023-02-08T22:30:00.755Z,2.5
2023-02-08T22:35:00.719Z,4.1
2023-02-08T22:40:00.713Z,3.7
2023-02-08T22:45:00.751Z,4.2
2023-02-08T22:50:00.714Z,3.5
2023-02-08T22:55:00.750Z,3.5
2023-02-08T23:00:00.736Z,3.5
2023-02-08T23:05:00.722Z,2.3
2023-02-08T23:10:00.768Z,2.8
2023-02-08T23:15:00.749Z,2.7
2023-02-08T23:20:00.702Z,3.8
2023-02-08T23:25:00.732Z,2.8
2023-02-08T23:30:00.698Z,3.2
2023-02-08T23:35:00.731Z,2.6
2023-02-08T23:40:00.694Z,2.2
2023-02-08T23:45:00.708Z,2.2
2023-02-08T23:50:00.697Z,1.1
2023-02-08T23:55:00.740Z,4.3
